sensor_id;sensor_type;location;lat;lon;timestamp;temperature;humidity
11826;DHT22;5970;48.094;11.496;2022-11-15T00:00:03;4.10;99.90
11826;DHT22;5970;48.094;11.496;2022-11-15T00:02:30;4.10;99.90
11826;DHT22;5970;48.094;11.496;2022-11-15T00:04:56;4.00;99.90
11826;DHT22;5970;48.094;11.496;2022-11-15T00:07:23;4.00;99.90
11826;DHT22;5970;48.094;11.496;2022-11-15T00:10:09;4.00;99.90
11826;DHT22;5970;48.094;11.496;2022-11-15T00:12:36;4.00;99.90
11826;DHT22;5970;48.094;11.496;2022-11-15T00:15:03;3.90;99.90
11826;DHT22;5970;48.094;11.496;2022-11-15T00:17:29;3.90;99.90
11826;DHT22;5970;48.094;11.496;2022-11-15T00:19:56;3.90;99.90
11826;DHT22;5970;48.094;11.496;2022-11-15T00:22:23;3.90;99.90
11826;DHT22;5970;48.094;11.496;2022-11-15T00:24:49;4.00;99.90
11826;DHT22;5970;48.094;11.496;2022-11-15T00:27:16;4.00;99.90
11826;DHT22;5970;48.094;11.496;2022-11-15T00:29:43;4.00;99.90
11826;DHT22;5970;48.094;11.496;2022-11-15T00:32:10;4.00;99.90
11826;DHT22;5970;48.094;11.496;2022-11-15T00:34:36;4.00;99.90
11826;DHT22;5970;48.094;11.496;2022-11-15T00:37:03;4.00;99.90
11826;DHT22;5970;48.094;11.496;2022-11-15T00:39:30;3.90;99.90
11826;DHT22;5970;48.094;11.496;2022-11-15T00:41:56;3.90;99.90
11826;DHT22;5970;48.094;11.496;2022-11-15T00:44:23;3.80;99.90
11826;DHT22;5970;48.094;11.496;2022-11-15T00:46:49;3.90;99.90
11826;DHT22;5970;48.094;11.496;2022-11-15T00:49:16;3.80;99.90
11826;DHT22;5970;48.094;11.496;2022-11-15T00:51:43;3.80;99.90
11826;DHT22;5970;48.094;11.496;2022-11-15T00:54:09;3.80;99.90
11826;DHT22;5970;48.094;11.496;2022-11-15T00:56:36;3.80;99.90
11826;DHT22;5970;48.094;11.496;2022-11-15T00:59:02;3.80;99.90
11826;DHT22;5970;48.094;11.496;2022-11-15T01:01:29;3.80;99.90
11826;DHT22;5970;48.094;11.496;2022-11-15T01:03:56;3.80;99.90
11826;DHT22;5970;48.094;11.496;2022-11-15T01:06:26;3.70;99.90
11826;DHT22;5970;48.094;11.496;2022-11-15T01:08:53;3.70;99.90
11826;DHT22;5970;48.094;11.496;2022-11-15T01:11:20;3.70;99.90
11826;DHT22;5970;48.094;11.496;2022-11-15T01:13:46;3.70;99.90
11826;DHT22;5970;48.094;11.496;2022-11-15T01:16:14;3.70;99.90
11826;DHT22;5970;48.094;11.496;2022-11-15T01:18:41;3.70;99.90
11826;DHT22;5970;48.094;11.496;2022-11-15T01:21:09;3.70;99.90
11826;DHT22;5970;48.094;11.496;2022-11-15T01:23:36;3.70;99.90
11826;DHT22;5970;48.094;11.496;2022-11-15T01:26:03;3.60;99.90
11826;DHT22;5970;48.094;11.496;2022-11-15T01:28:31;3.60;99.90
11826;DHT22;5970;48.094;11.496;2022-11-15T01:31:01;3.60;99.90
11826;DHT22;5970;48.094;11.496;2022-11-15T01:33:28;3.50;99.90
11826;DHT22;5970;48.094;11.496;2022-11-15T01:35:56;3.50;99.90
11826;DHT22;5970;48.094;11.496;2022-11-15T01:38:22;3.50;99.90
11826;DHT22;5970;48.094;11.496;2022-11-15T01:40:49;3.50;99.90
11826;DHT22;5970;48.094;11.496;2022-11-15T01:43:22;3.50;99.90
11826;DHT22;5970;48.094;11.496;2022-11-15T01:45:51;3.50;99.90
11826;DHT22;5970;48.094;11.496;2022-11-15T01:48:19;3.50;99.90
11826;DHT22;5970;48.094;11.496;2022-11-15T01:50:46;3.50;99.90
11826;DHT22;5970;48.094;11.496;2022-11-15T01:53:12;3.40;99.90
11826;DHT22;5970;48.094;11.496;2022-11-15T01:55:39;3.40;99.90
11826;DHT22;5970;48.094;11.496;2022-11-15T01:58:06;3.40;99.90
11826;DHT22;5970;48.094;11.496;2022-11-15T02:00:33;3.40;99.90
11826;DHT22;5970;48.094;11.496;2022-11-15T02:03:00;3.30;99.90
11826;DHT22;5970;48.094;11.496;2022-11-15T02:05:27;3.30;99.90
11826;DHT22;5970;48.094;11.496;2022-11-15T02:07:55;3.30;99.90
11826;DHT22;5970;48.094;11.496;2022-11-15T02:10:23;3.30;99.90
11826;DHT22;5970;48.094;11.496;2022-11-15T02:12:50;3.30;99.90
11826;DHT22;5970;48.094;11.496;2022-11-15T02:15:17;3.30;99.90
11826;DHT22;5970;48.094;11.496;2022-11-15T02:20:20;3.30;99.90
11826;DHT22;5970;48.094;11.496;2022-11-15T02:28:25;3.30;99.90
11826;DHT22;5970;48.094;11.496;2022-11-15T02:30:55;3.30;99.90
11826;DHT22;5970;48.094;11.496;2022-11-15T02:33:28;3.30;99.90
11826;DHT22;5970;48.094;11.496;2022-11-15T02:35:58;3.20;99.90
11826;DHT22;5970;48.094;11.496;2022-11-15T02:40:53;3.20;99.90
11826;DHT22;5970;48.094;11.496;2022-11-15T02:43:31;3.20;99.90
11826;DHT22;5970;48.094;11.496;2022-11-15T02:46:40;3.20;99.90
11826;DHT22;5970;48.094;11.496;2022-11-15T02:49:24;3.20;99.90
11826;DHT22;5970;48.094;11.496;2022-11-15T02:51:51;3.10;99.90
11826;DHT22;5970;48.094;11.496;2022-11-15T02:54:26;3.10;99.90
11826;DHT22;5970;48.094;11.496;2022-11-15T02:56:53;3.20;99.90
11826;DHT22;5970;48.094;11.496;2022-11-15T03:07:42;3.10;99.90
11826;DHT22;5970;48.094;11.496;2022-11-15T03:12:24;3.00;99.90
11826;DHT22;5970;48.094;11.496;2022-11-15T03:14:58;3.00;99.90
11826;DHT22;5970;48.094;11.496;2022-11-15T03:17:33;3.00;99.90
11826;DHT22;5970;48.094;11.496;2022-11-15T03:20:05;3.00;99.90
11826;DHT22;5970;48.094;11.496;2022-11-15T03:22:34;3.10;99.90
11826;DHT22;5970;48.094;11.496;2022-11-15T03:25:02;3.00;99.90
11826;DHT22;5970;48.094;11.496;2022-11-15T03:27:35;3.00;99.90
11826;DHT22;5970;48.094;11.496;2022-11-15T03:30:04;3.00;99.90
11826;DHT22;5970;48.094;11.496;2022-11-15T03:32:32;3.00;99.90
11826;DHT22;5970;48.094;11.496;2022-11-15T03:37:32;2.90;99.90
11826;DHT22;5970;48.094;11.496;2022-11-15T03:40:00;2.90;99.90
11826;DHT22;5970;48.094;11.496;2022-11-15T03:42:31;2.90;99.90
11826;DHT22;5970;48.094;11.496;2022-11-15T03:45:08;2.90;99.90
11826;DHT22;5970;48.094;11.496;2022-11-15T03:47:45;2.90;99.90
11826;DHT22;5970;48.094;11.496;2022-11-15T03:50:15;2.90;99.90
11826;DHT22;5970;48.094;11.496;2022-11-15T03:52:43;2.90;99.90
11826;DHT22;5970;48.094;11.496;2022-11-15T03:55:11;2.90;99.90
11826;DHT22;5970;48.094;11.496;2022-11-15T03:57:39;2.80;99.90
11826;DHT22;5970;48.094;11.496;2022-11-15T04:00:05;2.80;99.90
11826;DHT22;5970;48.094;11.496;2022-11-15T04:02:32;2.80;99.90
11826;DHT22;5970;48.094;11.496;2022-11-15T04:04:59;2.80;99.90
11826;DHT22;5970;48.094;11.496;2022-11-15T04:07:25;2.80;99.90
11826;DHT22;5970;48.094;11.496;2022-11-15T04:09:52;2.80;99.90
11826;DHT22;5970;48.094;11.496;2022-11-15T04:12:35;2.80;99.90
11826;DHT22;5970;48.094;11.496;2022-11-15T04:17:35;2.70;99.90
11826;DHT22;5970;48.094;11.496;2022-11-15T04:20:03;2.70;99.90
11826;DHT22;5970;48.094;11.496;2022-11-15T04:22:48;2.70;99.90
11826;DHT22;5970;48.094;11.496;2022-11-15T04:25:33;2.70;99.90
11826;DHT22;5970;48.094;11.496;2022-11-15T04:27:59;2.60;99.90
11826;DHT22;5970;48.094;11.496;2022-11-15T04:30:26;2.60;99.90
11826;DHT22;5970;48.094;11.496;2022-11-15T04:32:53;2.70;99.90
11826;DHT22;5970;48.094;11.496;2022-11-15T04:35:19;2.70;99.90
11826;DHT22;5970;48.094;11.496;2022-11-15T04:37:46;2.70;99.90
11826;DHT22;5970;48.094;11.496;2022-11-15T04:40:15;2.70;99.90
11826;DHT22;5970;48.094;11.496;2022-11-15T04:42:41;2.70;99.90
11826;DHT22;5970;48.094;11.496;2022-11-15T04:45:11;2.70;99.90
11826;DHT22;5970;48.094;11.496;2022-11-15T04:47:37;2.80;99.90
11826;DHT22;5970;48.094;11.496;2022-11-15T04:50:04;2.80;99.90
11826;DHT22;5970;48.094;11.496;2022-11-15T04:52:31;2.70;99.90
11826;DHT22;5970;48.094;11.496;2022-11-15T04:54:57;2.70;99.90
11826;DHT22;5970;48.094;11.496;2022-11-15T04:57:32;2.70;99.90
11826;DHT22;5970;48.094;11.496;2022-11-15T04:59:58;2.70;99.90
11826;DHT22;5970;48.094;11.496;2022-11-15T05:02:25;2.70;99.90
11826;DHT22;5970;48.094;11.496;2022-11-15T05:05:11;2.70;99.90
11826;DHT22;5970;48.094;11.496;2022-11-15T05:07:38;2.60;99.90
11826;DHT22;5970;48.094;11.496;2022-11-15T05:10:05;2.60;99.90
11826;DHT22;5970;48.094;11.496;2022-11-15T05:12:31;2.60;99.90
11826;DHT22;5970;48.094;11.496;2022-11-15T05:14:58;2.60;99.90
11826;DHT22;5970;48.094;11.496;2022-11-15T05:17:25;2.60;99.90
11826;DHT22;5970;48.094;11.496;2022-11-15T05:19:51;2.60;99.90
11826;DHT22;5970;48.094;11.496;2022-11-15T05:22:18;2.60;99.90
11826;DHT22;5970;48.094;11.496;2022-11-15T05:24:45;2.50;99.90
11826;DHT22;5970;48.094;11.496;2022-11-15T05:27:12;2.50;99.90
11826;DHT22;5970;48.094;11.496;2022-11-15T05:29:38;2.50;99.90
11826;DHT22;5970;48.094;11.496;2022-11-15T05:32:06;2.50;99.90
11826;DHT22;5970;48.094;11.496;2022-11-15T05:34:34;2.50;99.90
11826;DHT22;5970;48.094;11.496;2022-11-15T05:37:01;2.50;99.90
11826;DHT22;5970;48.094;11.496;2022-11-15T05:39:27;2.50;99.90
11826;DHT22;5970;48.094;11.496;2022-11-15T05:41:55;2.50;99.90
11826;DHT22;5970;48.094;11.496;2022-11-15T05:44:24;2.60;99.90
11826;DHT22;5970;48.094;11.496;2022-11-15T05:46:52;2.60;99.90
11826;DHT22;5970;48.094;11.496;2022-11-15T05:49:21;2.50;99.90
11826;DHT22;5970;48.094;11.496;2022-11-15T05:51:49;2.50;99.90
11826;DHT22;5970;48.094;11.496;2022-11-15T05:54:16;2.50;99.90
11826;DHT22;5970;48.094;11.496;2022-11-15T05:56:43;2.40;99.90
11826;DHT22;5970;48.094;11.496;2022-11-15T05:59:10;2.40;99.90
11826;DHT22;5970;48.094;11.496;2022-11-15T06:01:37;2.40;99.90
11826;DHT22;5970;48.094;11.496;2022-11-15T06:04:04;2.40;99.90
11826;DHT22;5970;48.094;11.496;2022-11-15T06:06:31;2.40;99.90
11826;DHT22;5970;48.094;11.496;2022-11-15T06:08:58;2.40;99.90
11826;DHT22;5970;48.094;11.496;2022-11-15T06:11:24;2.40;99.90
11826;DHT22;5970;48.094;11.496;2022-11-15T06:13:51;2.40;99.90
11826;DHT22;5970;48.094;11.496;2022-11-15T06:16:18;2.30;99.90
11826;DHT22;5970;48.094;11.496;2022-11-15T06:18:44;2.30;99.90
11826;DHT22;5970;48.094;11.496;2022-11-15T06:21:11;2.30;99.90
11826;DHT22;5970;48.094;11.496;2022-11-15T06:23:37;2.30;99.90
11826;DHT22;5970;48.094;11.496;2022-11-15T06:26:04;2.30;99.90
11826;DHT22;5970;48.094;11.496;2022-11-15T06:28:31;2.30;99.90
11826;DHT22;5970;48.094;11.496;2022-11-15T06:31:02;2.30;99.90
11826;DHT22;5970;48.094;11.496;2022-11-15T06:33:31;2.30;99.90
11826;DHT22;5970;48.094;11.496;2022-11-15T06:36:05;2.30;99.90
11826;DHT22;5970;48.094;11.496;2022-11-15T06:38:32;2.30;99.90
11826;DHT22;5970;48.094;11.496;2022-11-15T06:41:06;2.30;99.90
11826;DHT22;5970;48.094;11.496;2022-11-15T06:43:33;2.30;99.90
11826;DHT22;5970;48.094;11.496;2022-11-15T06:46:00;2.40;99.90
11826;DHT22;5970;48.094;11.496;2022-11-15T06:48:27;2.40;99.90
11826;DHT22;5970;48.094;11.496;2022-11-15T06:50:55;2.40;99.90
11826;DHT22;5970;48.094;11.496;2022-11-15T06:53:22;2.40;99.90
11826;DHT22;5970;48.094;11.496;2022-11-15T06:55:49;2.40;99.90
11826;DHT22;5970;48.094;11.496;2022-11-15T06:58:21;3.30;99.90
11826;DHT22;5970;48.094;11.496;2022-11-15T07:00:47;2.50;99.90
11826;DHT22;5970;48.094;11.496;2022-11-15T07:03:14;2.40;99.90
11826;DHT22;5970;48.094;11.496;2022-11-15T07:05:41;2.50;99.90
11826;DHT22;5970;48.094;11.496;2022-11-15T07:08:07;2.50;99.90
11826;DHT22;5970;48.094;11.496;2022-11-15T07:10:34;2.50;99.90
11826;DHT22;5970;48.094;11.496;2022-11-15T07:13:01;2.60;99.90
11826;DHT22;5970;48.094;11.496;2022-11-15T07:15:27;2.70;99.90
11826;DHT22;5970;48.094;11.496;2022-11-15T07:17:54;2.70;99.90
11826;DHT22;5970;48.094;11.496;2022-11-15T07:20:20;2.80;99.90
11826;DHT22;5970;48.094;11.496;2022-11-15T07:22:47;2.80;99.90
11826;DHT22;5970;48.094;11.496;2022-11-15T07:25:14;2.90;99.90
11826;DHT22;5970;48.094;11.496;2022-11-15T07:27:41;2.90;99.90
11826;DHT22;5970;48.094;11.496;2022-11-15T07:30:08;3.00;99.90
11826;DHT22;5970;48.094;11.496;2022-11-15T07:32:34;3.00;99.90
11826;DHT22;5970;48.094;11.496;2022-11-15T07:35:01;3.10;99.90
11826;DHT22;5970;48.094;11.496;2022-11-15T07:37:28;3.20;99.90
11826;DHT22;5970;48.094;11.496;2022-11-15T07:39:54;3.30;99.90
11826;DHT22;5970;48.094;11.496;2022-11-15T07:42:21;3.40;99.90
11826;DHT22;5970;48.094;11.496;2022-11-15T07:45:06;3.50;99.90
11826;DHT22;5970;48.094;11.496;2022-11-15T07:47:33;3.60;99.90
11826;DHT22;5970;48.094;11.496;2022-11-15T07:50:00;3.70;99.90
11826;DHT22;5970;48.094;11.496;2022-11-15T07:52:26;3.90;99.90
11826;DHT22;5970;48.094;11.496;2022-11-15T07:54:53;4.00;99.90
11826;DHT22;5970;48.094;11.496;2022-11-15T07:57:20;4.10;99.90
11826;DHT22;5970;48.094;11.496;2022-11-15T07:59:46;6.20;99.90
11826;DHT22;5970;48.094;11.496;2022-11-15T08:02:13;4.40;99.90
11826;DHT22;5970;48.094;11.496;2022-11-15T08:04:40;4.60;99.90
11826;DHT22;5970;48.094;11.496;2022-11-15T08:07:06;4.80;99.90
11826;DHT22;5970;48.094;11.496;2022-11-15T08:09:33;5.00;99.90
11826;DHT22;5970;48.094;11.496;2022-11-15T08:11:59;5.20;99.90
11826;DHT22;5970;48.094;11.496;2022-11-15T08:14:26;5.30;99.90
11826;DHT22;5970;48.094;11.496;2022-11-15T08:16:54;5.40;99.90
11826;DHT22;5970;48.094;11.496;2022-11-15T08:19:20;5.60;99.90
11826;DHT22;5970;48.094;11.496;2022-11-15T08:21:47;5.70;99.90
11826;DHT22;5970;48.094;11.496;2022-11-15T08:24:14;5.80;99.90
11826;DHT22;5970;48.094;11.496;2022-11-15T08:26:41;5.90;99.90
11826;DHT22;5970;48.094;11.496;2022-11-15T08:29:07;6.00;99.90
11826;DHT22;5970;48.094;11.496;2022-11-15T08:31:35;6.10;99.90
11826;DHT22;5970;48.094;11.496;2022-11-15T08:34:03;6.30;99.90
11826;DHT22;5970;48.094;11.496;2022-11-15T08:36:29;6.40;99.90
11826;DHT22;5970;48.094;11.496;2022-11-15T08:39:10;6.50;99.90
11826;DHT22;5970;48.094;11.496;2022-11-15T08:41:37;6.70;99.90
11826;DHT22;5970;48.094;11.496;2022-11-15T08:44:03;6.90;99.90
11826;DHT22;5970;48.094;11.496;2022-11-15T08:46:30;7.10;99.90
11826;DHT22;5970;48.094;11.496;2022-11-15T08:48:57;7.30;99.90
11826;DHT22;5970;48.094;11.496;2022-11-15T08:51:23;7.40;99.90
11826;DHT22;5970;48.094;11.496;2022-11-15T08:53:50;7.40;99.90
11826;DHT22;5970;48.094;11.496;2022-11-15T08:56:17;7.60;99.90
11826;DHT22;5970;48.094;11.496;2022-11-15T08:58:43;7.80;99.90
11826;DHT22;5970;48.094;11.496;2022-11-15T09:01:17;7.90;99.90
11826;DHT22;5970;48.094;11.496;2022-11-15T09:03:44;8.00;99.90
11826;DHT22;5970;48.094;11.496;2022-11-15T09:06:11;8.10;99.90
11826;DHT22;5970;48.094;11.496;2022-11-15T09:08:38;8.10;99.90
11826;DHT22;5970;48.094;11.496;2022-11-15T09:11:13;8.20;99.90
11826;DHT22;5970;48.094;11.496;2022-11-15T09:13:42;8.30;99.90
11826;DHT22;5970;48.094;11.496;2022-11-15T09:16:09;8.40;99.90
11826;DHT22;5970;48.094;11.496;2022-11-15T09:18:38;8.50;99.80
11826;DHT22;5970;48.094;11.496;2022-11-15T09:21:04;8.60;99.80
11826;DHT22;5970;48.094;11.496;2022-11-15T09:23:31;8.70;99.70
11826;DHT22;5970;48.094;11.496;2022-11-15T09:25:59;8.80;99.40
11826;DHT22;5970;48.094;11.496;2022-11-15T09:28:26;8.90;98.60
11826;DHT22;5970;48.094;11.496;2022-11-15T09:30:57;9.00;98.90
11826;DHT22;5970;48.094;11.496;2022-11-15T09:33:25;9.10;98.90
11826;DHT22;5970;48.094;11.496;2022-11-15T09:35:51;9.20;98.20
11826;DHT22;5970;48.094;11.496;2022-11-15T09:38:18;9.30;98.50
11826;DHT22;5970;48.094;11.496;2022-11-15T09:40:47;9.40;98.80
11826;DHT22;5970;48.094;11.496;2022-11-15T09:43:39;8.40;98.10
11826;DHT22;5970;48.094;11.496;2022-11-15T09:48:51;9.70;97.00
11826;DHT22;5970;48.094;11.496;2022-11-15T09:51:34;9.90;96.60
11826;DHT22;5970;48.094;11.496;2022-11-15T09:54:09;10.00;96.70
11826;DHT22;5970;48.094;11.496;2022-11-15T09:57:03;10.10;96.40
11826;DHT22;5970;48.094;11.496;2022-11-15T10:04:47;10.30;95.60
11826;DHT22;5970;48.094;11.496;2022-11-15T10:07:27;10.40;95.20
11826;DHT22;5970;48.094;11.496;2022-11-15T10:12:23;10.50;95.00
11826;DHT22;5970;48.094;11.496;2022-11-15T10:15:02;10.60;94.80
11826;DHT22;5970;48.094;11.496;2022-11-15T10:22:53;10.80;95.50
11826;DHT22;5970;48.094;11.496;2022-11-15T10:27:53;11.00;95.30
11826;DHT22;5970;48.094;11.496;2022-11-15T10:30:20;11.00;94.00
11826;DHT22;5970;48.094;11.496;2022-11-15T10:32:47;11.00;94.20
11826;DHT22;5970;48.094;11.496;2022-11-15T10:37:44;11.10;94.80
11826;DHT22;5970;48.094;11.496;2022-11-15T10:40:18;11.10;94.80
11826;DHT22;5970;48.094;11.496;2022-11-15T10:42:45;11.20;93.80
11826;DHT22;5970;48.094;11.496;2022-11-15T10:47:50;11.30;92.80
11826;DHT22;5970;48.094;11.496;2022-11-15T10:50:28;11.40;92.20
11826;DHT22;5970;48.094;11.496;2022-11-15T10:52:55;11.50;92.20
11826;DHT22;5970;48.094;11.496;2022-11-15T10:55:26;11.70;92.30
11826;DHT22;5970;48.094;11.496;2022-11-15T10:58:00;11.80;92.00
11826;DHT22;5970;48.094;11.496;2022-11-15T11:00:37;12.30;92.50
11826;DHT22;5970;48.094;11.496;2022-11-15T11:03:27;12.10;92.40
11826;DHT22;5970;48.094;11.496;2022-11-15T11:06:02;12.20;91.60
11826;DHT22;5970;48.094;11.496;2022-11-15T11:08:29;12.30;92.10
11826;DHT22;5970;48.094;11.496;2022-11-15T11:10:57;12.40;91.50
11826;DHT22;5970;48.094;11.496;2022-11-15T11:13:29;12.60;91.90
11826;DHT22;5970;48.094;11.496;2022-11-15T11:16:04;12.60;90.70
11826;DHT22;5970;48.094;11.496;2022-11-15T11:19:23;12.60;91.20
11826;DHT22;5970;48.094;11.496;2022-11-15T11:24:03;13.70;91.00
11826;DHT22;5970;48.094;11.496;2022-11-15T11:29:48;17.30;84.40
11826;DHT22;5970;48.094;11.496;2022-11-15T11:31:58;19.30;80.10
11826;DHT22;5970;48.094;11.496;2022-11-15T11:37:31;22.30;66.30
11826;DHT22;5970;48.094;11.496;2022-11-15T11:48:08;23.70;53.20
11826;DHT22;5970;48.094;11.496;2022-11-15T11:50:28;24.50;53.40
11826;DHT22;5970;48.094;11.496;2022-11-15T11:53:00;25.20;52.50
11826;DHT22;5970;48.094;11.496;2022-11-15T11:55:37;25.00;50.70
11826;DHT22;5970;48.094;11.496;2022-11-15T11:58:14;25.40;50.20
11826;DHT22;5970;48.094;11.496;2022-11-15T12:01:00;25.60;50.30
11826;DHT22;5970;48.094;11.496;2022-11-15T12:03:40;25.60;48.50
11826;DHT22;5970;48.094;11.496;2022-11-15T12:08:43;26.20;48.30
11826;DHT22;5970;48.094;11.496;2022-11-15T12:13:56;25.40;49.00
11826;DHT22;5970;48.094;11.496;2022-11-15T12:16:28;25.40;46.40
11826;DHT22;5970;48.094;11.496;2022-11-15T12:18:56;25.20;45.90
11826;DHT22;5970;48.094;11.496;2022-11-15T12:21:34;24.00;47.60
11826;DHT22;5970;48.094;11.496;2022-11-15T12:24:02;24.10;50.00
11826;DHT22;5970;48.094;11.496;2022-11-15T12:26:33;24.40;48.50
11826;DHT22;5970;48.094;11.496;2022-11-15T12:29:03;24.20;49.90
11826;DHT22;5970;48.094;11.496;2022-11-15T12:34:02;24.10;48.60
11826;DHT22;5970;48.094;11.496;2022-11-15T12:36:42;23.70;48.80
11826;DHT22;5970;48.094;11.496;2022-11-15T12:39:10;23.00;49.70
11826;DHT22;5970;48.094;11.496;2022-11-15T12:44:04;22.10;50.20
11826;DHT22;5970;48.094;11.496;2022-11-15T12:49:09;23.00;50.90
11826;DHT22;5970;48.094;11.496;2022-11-15T12:59:53;21.50;52.50
11826;DHT22;5970;48.094;11.496;2022-11-15T13:04:48;20.50;52.10
11826;DHT22;5970;48.094;11.496;2022-11-15T13:10:00;19.90;53.40
11826;DHT22;5970;48.094;11.496;2022-11-15T13:14:54;20.70;56.40
11826;DHT22;5970;48.094;11.496;2022-11-15T13:17:33;20.90;55.70
11826;DHT22;5970;48.094;11.496;2022-11-15T13:22:27;21.40;53.40
11826;DHT22;5970;48.094;11.496;2022-11-15T13:27:58;21.30;54.90
11826;DHT22;5970;48.094;11.496;2022-11-15T13:30:32;21.20;54.70
11826;DHT22;5970;48.094;11.496;2022-11-15T13:33:00;21.10;54.80
11826;DHT22;5970;48.094;11.496;2022-11-15T13:35:28;20.50;54.60
11826;DHT22;5970;48.094;11.496;2022-11-15T13:37:56;20.70;55.30
11826;DHT22;5970;48.094;11.496;2022-11-15T13:42:51;20.30;55.70
11826;DHT22;5970;48.094;11.496;2022-11-15T13:45:18;20.00;55.80
11826;DHT22;5970;48.094;11.496;2022-11-15T13:47:50;19.70;56.10
11826;DHT22;5970;48.094;11.496;2022-11-15T13:50:17;19.30;56.40
11826;DHT22;5970;48.094;11.496;2022-11-15T13:52:44;18.90;57.30
11826;DHT22;5970;48.094;11.496;2022-11-15T13:55:13;18.80;58.10
11826;DHT22;5970;48.094;11.496;2022-11-15T13:57:48;17.90;57.10
11826;DHT22;5970;48.094;11.496;2022-11-15T14:03:18;18.00;59.50
11826;DHT22;5970;48.094;11.496;2022-11-15T14:08:30;18.10;61.30
11826;DHT22;5970;48.094;11.496;2022-11-15T14:11:17;18.10;60.90
11826;DHT22;5970;48.094;11.496;2022-11-15T14:16:32;18.20;61.60
11826;DHT22;5970;48.094;11.496;2022-11-15T14:18:59;18.00;64.40
11826;DHT22;5970;48.094;11.496;2022-11-15T14:21:25;17.70;64.10
11826;DHT22;5970;48.094;11.496;2022-11-15T14:23:52;17.40;64.80
11826;DHT22;5970;48.094;11.496;2022-11-15T14:26:26;17.10;66.80
11826;DHT22;5970;48.094;11.496;2022-11-15T14:28:53;16.80;67.00
11826;DHT22;5970;48.094;11.496;2022-11-15T14:31:20;16.40;66.70
11826;DHT22;5970;48.094;11.496;2022-11-15T14:33:47;16.30;68.30
11826;DHT22;5970;48.094;11.496;2022-11-15T14:36:20;15.70;69.20
11826;DHT22;5970;48.094;11.496;2022-11-15T14:38:47;15.50;70.60
11826;DHT22;5970;48.094;11.496;2022-11-15T14:43:40;14.80;73.20
11826;DHT22;5970;48.094;11.496;2022-11-15T14:46:07;14.60;74.80
11826;DHT22;5970;48.094;11.496;2022-11-15T14:48:33;14.20;75.90
11826;DHT22;5970;48.094;11.496;2022-11-15T14:51:01;13.90;76.80
11826;DHT22;5970;48.094;11.496;2022-11-15T14:53:27;13.70;77.90
11826;DHT22;5970;48.094;11.496;2022-11-15T14:55:54;13.40;79.10
11826;DHT22;5970;48.094;11.496;2022-11-15T14:58:20;13.20;81.00
11826;DHT22;5970;48.094;11.496;2022-11-15T15:00:47;13.00;80.90
11826;DHT22;5970;48.094;11.496;2022-11-15T15:03:14;12.70;82.20
11826;DHT22;5970;48.094;11.496;2022-11-15T15:05:41;12.60;83.10
11826;DHT22;5970;48.094;11.496;2022-11-15T15:08:09;12.50;84.00
11826;DHT22;5970;48.094;11.496;2022-11-15T15:10:37;12.20;84.70
11826;DHT22;5970;48.094;11.496;2022-11-15T15:13:16;12.20;85.60
11826;DHT22;5970;48.094;11.496;2022-11-15T15:15:44;11.90;86.20
11826;DHT22;5970;48.094;11.496;2022-11-15T15:18:10;11.70;87.40
11826;DHT22;5970;48.094;11.496;2022-11-15T15:20:38;11.90;87.00
11826;DHT22;5970;48.094;11.496;2022-11-15T15:23:08;12.20;87.90
11826;DHT22;5970;48.094;11.496;2022-11-15T15:25:40;11.60;87.90
11826;DHT22;5970;48.094;11.496;2022-11-15T15:28:08;11.20;88.50
11826;DHT22;5970;48.094;11.496;2022-11-15T15:30:35;11.10;89.20
11826;DHT22;5970;48.094;11.496;2022-11-15T15:33:01;11.10;89.60
11826;DHT22;5970;48.094;11.496;2022-11-15T15:35:32;11.30;90.30
11826;DHT22;5970;48.094;11.496;2022-11-15T15:37:59;11.10;90.50
11826;DHT22;5970;48.094;11.496;2022-11-15T15:40:27;11.10;90.80
11826;DHT22;5970;48.094;11.496;2022-11-15T15:42:53;11.40;91.20
11826;DHT22;5970;48.094;11.496;2022-11-15T15:45:20;10.90;91.50
11826;DHT22;5970;48.094;11.496;2022-11-15T15:47:47;10.80;92.00
11826;DHT22;5970;48.094;11.496;2022-11-15T15:50:26;10.70;92.30
11826;DHT22;5970;48.094;11.496;2022-11-15T15:52:54;10.60;92.70
11826;DHT22;5970;48.094;11.496;2022-11-15T15:55:21;10.50;93.00
11826;DHT22;5970;48.094;11.496;2022-11-15T15:57:48;10.40;93.30
11826;DHT22;5970;48.094;11.496;2022-11-15T16:00:15;10.30;93.70
11826;DHT22;5970;48.094;11.496;2022-11-15T16:02:42;10.20;94.20
11826;DHT22;5970;48.094;11.496;2022-11-15T16:05:09;10.10;94.40
11826;DHT22;5970;48.094;11.496;2022-11-15T16:07:36;10.00;94.70
11826;DHT22;5970;48.094;11.496;2022-11-15T16:10:13;9.90;95.50
11826;DHT22;5970;48.094;11.496;2022-11-15T16:12:41;9.80;95.80
11826;DHT22;5970;48.094;11.496;2022-11-15T16:15:08;10.50;96.00
11826;DHT22;5970;48.094;11.496;2022-11-15T16:17:37;9.70;96.40
11826;DHT22;5970;48.094;11.496;2022-11-15T16:20:05;9.70;96.70
11826;DHT22;5970;48.094;11.496;2022-11-15T16:22:32;9.60;96.80
11826;DHT22;5970;48.094;11.496;2022-11-15T16:24:59;9.60;97.00
11826;DHT22;5970;48.094;11.496;2022-11-15T16:27:25;9.60;97.30
11826;DHT22;5970;48.094;11.496;2022-11-15T16:29:52;9.50;97.40
11826;DHT22;5970;48.094;11.496;2022-11-15T16:32:19;11.00;97.90
11826;DHT22;5970;48.094;11.496;2022-11-15T16:34:45;9.40;97.90
11826;DHT22;5970;48.094;11.496;2022-11-15T16:37:21;9.50;98.00
11826;DHT22;5970;48.094;11.496;2022-11-15T16:39:49;9.50;98.10
11826;DHT22;5970;48.094;11.496;2022-11-15T16:42:15;10.20;98.00
11826;DHT22;5970;48.094;11.496;2022-11-15T16:44:42;10.70;98.30
11826;DHT22;5970;48.094;11.496;2022-11-15T16:47:19;9.40;98.40
11826;DHT22;5970;48.094;11.496;2022-11-15T16:49:46;9.40;98.60
11826;DHT22;5970;48.094;11.496;2022-11-15T16:52:13;9.30;98.80
11826;DHT22;5970;48.094;11.496;2022-11-15T16:54:46;9.20;98.80
11826;DHT22;5970;48.094;11.496;2022-11-15T16:57:13;9.20;98.90
11826;DHT22;5970;48.094;11.496;2022-11-15T16:59:39;9.20;99.10
11826;DHT22;5970;48.094;11.496;2022-11-15T17:02:10;9.10;99.10
11826;DHT22;5970;48.094;11.496;2022-11-15T17:04:37;9.10;99.30
11826;DHT22;5970;48.094;11.496;2022-11-15T17:07:04;9.00;99.40
11826;DHT22;5970;48.094;11.496;2022-11-15T17:09:31;8.90;99.50
11826;DHT22;5970;48.094;11.496;2022-11-15T17:11:58;9.00;99.70
11826;DHT22;5970;48.094;11.496;2022-11-15T17:14:25;8.80;99.80
11826;DHT22;5970;48.094;11.496;2022-11-15T17:16:51;8.70;99.90
11826;DHT22;5970;48.094;11.496;2022-11-15T17:19:20;8.70;99.90
11826;DHT22;5970;48.094;11.496;2022-11-15T17:21:46;8.70;99.90
11826;DHT22;5970;48.094;11.496;2022-11-15T17:24:16;8.60;99.90
11826;DHT22;5970;48.094;11.496;2022-11-15T17:26:43;8.60;99.90
11826;DHT22;5970;48.094;11.496;2022-11-15T17:29:09;8.50;99.90
11826;DHT22;5970;48.094;11.496;2022-11-15T17:31:36;8.40;99.90
11826;DHT22;5970;48.094;11.496;2022-11-15T17:34:03;8.40;99.90
11826;DHT22;5970;48.094;11.496;2022-11-15T17:36:30;8.40;99.90
11826;DHT22;5970;48.094;11.496;2022-11-15T17:38:57;8.30;99.90
11826;DHT22;5970;48.094;11.496;2022-11-15T17:41:26;8.30;99.90
11826;DHT22;5970;48.094;11.496;2022-11-15T17:43:54;8.30;99.90
11826;DHT22;5970;48.094;11.496;2022-11-15T17:46:21;8.30;99.90